Time;durP1;ratioP1;P1;durP2;ratioP2;P2;SDS_P1;SDS_P2;PMS_P1;PMS_P2;Temp;Humidity;BMP_temperature;BMP_pressure;BME280_temperature;BME280_humidity;BME280_pressure;Samples;Min_cycle;Max_cycle;Signal;HPM_P1;HPM_P2
2022/09/23 00:01:32;;;;;;;8.00;5.18;;;;;;;;;;5083099;28;20028;-75
2022/09/23 00:03:59;;;;;;;5.55;4.65;;;;;;;;;;5086500;28;20541;-75
2022/09/23 00:06:29;;;;;;;4.25;3.45;;;;;;;;;;5068693;28;20130;-75
2022/09/23 00:08:55;;;;;;;5.10;3.03;;;;;;;;;;5072002;28;20158;-75
2022/09/23 00:11:22;;;;;;;3.85;2.83;;;;;;;;;;5069601;28;20028;-74
2022/09/23 00:13:49;;;;;;;4.80;3.03;;;;;;;;;;5062112;28;20021;-75
2022/09/23 00:16:17;;;;;;;7.43;2.70;;;;;;;;;;5086753;28;20020;-75
2022/09/23 00:18:44;;;;;;;7.47;3.45;;;;;;;;;;5067481;28;20452;-74
2022/09/23 00:21:11;;;;;;;4.30;2.65;;;;;;;;;;5092655;28;20016;-75
2022/09/23 00:23:39;;;;;;;5.57;2.67;;;;;;;;;;5092206;28;20063;-74
2022/09/23 00:26:06;;;;;;;4.60;3.78;;;;;;;;;;5082856;28;20461;-75
2022/09/23 00:28:33;;;;;;;6.80;3.30;;;;;;;;;;5087691;28;20080;-74
2022/09/23 00:31:06;;;;;;;3.13;2.42;;;;;;;;;;5073630;28;20056;-75
2022/09/23 00:33:32;;;;;;;5.57;2.85;;;;;;;;;;5074803;28;20205;-75
2022/09/23 00:36:03;;;;;;;9.15;3.10;;;;;;;;;;5100110;28;20095;-74
2022/09/23 00:38:29;;;;;;;6.68;3.20;;;;;;;;;;5071136;28;20026;-74
2022/09/23 00:40:57;;;;;;;5.00;2.70;;;;;;;;;;5091340;28;20161;-74
2022/09/23 00:43:42;;;;;;;4.63;3.17;;;;;;;;;;5072982;28;20024;-74
2022/09/23 00:46:09;;;;;;;3.17;2.77;;;;;;;;;;5085766;28;20032;-75
2022/09/23 00:48:37;;;;;;;4.35;2.92;;;;;;;;;;5071275;28;20028;-76
2022/09/23 00:51:04;;;;;;;9.25;3.28;;;;;;;;;;5085415;28;20036;-74
2022/09/23 00:53:30;;;;;;;5.75;3.03;;;;;;;;;;5082992;28;20032;-75
2022/09/23 00:56:01;;;;;;;5.65;3.33;;;;;;;;;;5102076;28;20028;-74
2022/09/23 00:58:30;;;;;;;5.18;3.50;;;;;;;;;;5068792;28;20465;-74
2022/09/23 01:00:58;;;;;;;4.35;2.95;;;;;;;;;;5083725;28;20047;-75
2022/09/23 01:03:25;;;;;;;6.95;3.92;;;;;;;;;;5074818;28;20052;-75
2022/09/23 01:05:51;;;;;;;7.50;3.08;;;;;;;;;;5069431;28;20021;-75
2022/09/23 01:08:18;;;;;;;7.95;3.25;;;;;;;;;;5091260;28;20114;-75
2022/09/23 01:10:50;;;;;;;7.43;3.45;;;;;;;;;;5091628;28;20016;-75
2022/09/23 01:13:25;;;;;;;6.90;3.63;;;;;;;;;;5082008;28;20107;-75
2022/09/23 01:16:09;;;;;;;6.15;3.13;;;;;;;;;;5078263;28;20016;-73
2022/09/23 01:18:47;;;;;;;7.47;3.15;;;;;;;;;;5069625;28;20020;-75
2022/09/23 01:21:18;;;;;;;6.60;3.13;;;;;;;;;;5070969;28;20021;-75
2022/09/23 01:24:01;;;;;;;6.53;3.13;;;;;;;;;;5088643;28;20079;-75
2022/09/23 01:26:42;;;;;;;8.32;3.83;;;;;;;;;;5084656;28;20047;-74
2022/09/23 01:29:18;;;;;;;3.90;3.08;;;;;;;;;;5071438;28;20488;-75
2022/09/23 01:31:57;;;;;;;6.90;3.95;;;;;;;;;;5083623;28;20031;-74
2022/09/23 01:34:34;;;;;;;3.92;2.92;;;;;;;;;;5062662;28;20028;-74
2022/09/23 01:37:06;;;;;;;5.78;2.97;;;;;;;;;;5087494;28;20120;-74
2022/09/23 01:39:44;;;;;;;7.47;4.57;;;;;;;;;;5066284;28;20031;-74
2022/09/23 01:42:21;;;;;;;5.47;3.28;;;;;;;;;;5094928;28;20058;-74
2022/09/23 01:44:55;;;;;;;5.00;3.10;;;;;;;;;;5093367;28;20024;-74
2022/09/23 01:47:24;;;;;;;4.57;3.10;;;;;;;;;;5082287;28;20032;-75
2022/09/23 01:49:50;;;;;;;6.00;3.13;;;;;;;;;;5073398;28;20115;-75
2022/09/23 01:52:35;;;;;;;8.18;2.90;;;;;;;;;;5087271;28;20046;-74
2022/09/23 01:55:17;;;;;;;12.50;3.38;;;;;;;;;;5079470;28;20024;-75
2022/09/23 01:57:46;;;;;;;6.35;2.65;;;;;;;;;;5052251;28;20029;-74
2022/09/23 02:00:16;;;;;;;4.43;2.70;;;;;;;;;;5067723;28;20472;-75
2022/09/23 02:02:48;;;;;;;4.82;2.95;;;;;;;;;;5081381;28;20032;-75
2022/09/23 02:05:20;;;;;;;4.55;2.75;;;;;;;;;;5084765;28;20574;-74
2022/09/23 02:07:51;;;;;;;4.13;2.83;;;;;;;;;;5064271;28;20105;-74
2022/09/23 02:10:44;;;;;;;3.70;3.08;;;;;;;;;;5070127;28;20068;-75
2022/09/23 02:13:23;;;;;;;7.55;3.05;;;;;;;;;;5078448;28;20043;-75
2022/09/23 02:15:52;;;;;;;4.32;2.70;;;;;;;;;;5083086;28;20020;-74
2022/09/23 02:18:23;;;;;;;5.55;2.55;;;;;;;;;;5065656;28;20049;-75
2022/09/23 02:20:50;;;;;;;4.82;2.95;;;;;;;;;;5077350;28;20055;-74
2022/09/23 02:23:20;;;;;;;6.38;3.75;;;;;;;;;;5084788;28;20044;-74
2022/09/23 02:26:06;;;;;;;9.52;2.85;;;;;;;;;;5060535;28;20036;-74
2022/09/23 02:28:32;;;;;;;;;;;;;;;;;;5084438;28;20047;-75
2022/09/23 02:31:06;;;;;;;5.13;2.80;;;;;;;;;;5087942;28;19908;-75
2022/09/23 02:33:51;;;;;;;4.93;2.80;;;;;;;;;;5057311;28;20032;-75
2022/09/23 02:36:26;;;;;;;4.28;3.03;;;;;;;;;;5063506;28;20020;-75
2022/09/23 02:38:56;;;;;;;4.35;3.10;;;;;;;;;;5076674;28;20100;-75
2022/09/23 02:41:28;;;;;;;5.10;3.30;;;;;;;;;;5092059;27;20536;-74
2022/09/23 02:44:03;;;;;;;4.90;2.67;;;;;;;;;;5079310;28;20023;-74
2022/09/23 02:46:30;;;;;;;4.95;3.00;;;;;;;;;;5067254;28;20024;-75
2022/09/23 02:48:59;;;;;;;5.50;3.25;;;;;;;;;;5093186;28;20026;-75
2022/09/23 02:51:27;;;;;;;4.38;2.90;;;;;;;;;;5065980;28;20670;-75
2022/09/23 02:53:57;;;;;;;7.70;3.75;;;;;;;;;;5074120;28;20020;-74
2022/09/23 02:56:24;;;;;;;4.95;3.50;;;;;;;;;;5087785;28;20035;-74
2022/09/23 02:58:52;;;;;;;7.38;3.53;;;;;;;;;;5070056;28;20031;-75
2022/09/23 03:01:25;;;;;;;5.70;3.25;;;;;;;;;;5081017;28;20909;-74
2022/09/23 03:04:03;;;;;;;5.43;3.28;;;;;;;;;;5083671;28;20013;-75
2022/09/23 03:06:48;;;;;;;6.18;3.20;;;;;;;;;;5085730;28;20154;-75
2022/09/23 03:09:34;;;;;;;6.88;3.13;;;;;;;;;;5064279;28;20035;-74
2022/09/23 03:12:09;;;;;;;6.97;3.58;;;;;;;;;;5091460;28;20550;-75
2022/09/23 03:14:52;;;;;;;8.40;3.22;;;;;;;;;;5083670;28;20008;-75
2022/09/23 03:17:27;;;;;;;5.63;3.25;;;;;;;;;;5074229;28;20032;-75
2022/09/23 03:20:05;;;;;;;6.57;3.00;;;;;;;;;;5070055;28;20688;-75
2022/09/23 03:22:40;;;;;;;8.77;3.60;;;;;;;;;;5092320;28;20126;-75
2022/09/23 03:25:08;;;;;;;5.25;3.42;;;;;;;;;;5063187;28;20136;-74
2022/09/23 03:27:35;;;;;;;4.70;3.33;;;;;;;;;;5070034;28;20114;-75
2022/09/23 03:30:02;;;;;;;4.05;3.25;;;;;;;;;;5080282;28;20269;-75
2022/09/23 03:32:30;;;;;;;5.47;3.63;;;;;;;;;;5070235;28;20115;-74
2022/09/23 03:34:59;;;;;;;7.93;3.60;;;;;;;;;;5076834;28;20024;-75
2022/09/23 03:37:30;;;;;;;6.60;3.70;;;;;;;;;;5088948;28;20013;-75
2022/09/23 03:40:08;;;;;;;4.47;3.20;;;;;;;;;;5063553;28;20036;-75
2022/09/23 03:42:36;;;;;;;5.78;3.35;;;;;;;;;;5061683;28;20489;-75
2022/09/23 03:45:06;;;;;;;6.43;3.58;;;;;;;;;;5080079;28;20112;-75
2022/09/23 03:47:32;;;;;;;5.80;3.80;;;;;;;;;;5092127;28;20023;-74
2022/09/23 03:49:58;;;;;;;8.32;3.90;;;;;;;;;;5085105;28;20101;-75
2022/09/23 03:52:25;;;;;;;6.53;4.28;;;;;;;;;;5069560;28;20071;-75
2022/09/23 03:54:51;;;;;;;5.30;3.47;;;;;;;;;;5087261;28;20029;-75
2022/09/23 03:57:19;;;;;;;7.22;3.95;;;;;;;;;;5086919;28;20039;-75
2022/09/23 03:59:45;;;;;;;6.47;3.63;;;;;;;;;;5099667;28;20016;-74
2022/09/23 04:02:11;;;;;;;7.10;3.65;;;;;;;;;;5088940;28;20024;-75
2022/09/23 04:04:39;;;;;;;8.77;4.07;;;;;;;;;;5090688;28;20039;-75
2022/09/23 04:07:05;;;;;;;6.32;4.13;;;;;;;;;;5093995;28;20032;-75
2022/09/23 04:09:31;;;;;;;5.63;3.88;;;;;;;;;;5084134;28;20028;-75
2022/09/23 04:11:57;;;;;;;8.63;3.80;;;;;;;;;;5090658;28;20465;-74
2022/09/23 04:14:24;;;;;;;6.53;3.80;;;;;;;;;;5084536;28;20024;-74
2022/09/23 04:16:50;;;;;;;8.68;3.67;;;;;;;;;;5084663;28;20085;-75
2022/09/23 04:19:16;;;;;;;4.63;3.47;;;;;;;;;;5073724;28;20640;-75
2022/09/23 04:21:44;;;;;;;5.22;3.58;;;;;;;;;;5088415;28;20035;-74
2022/09/23 04:24:10;;;;;;;9.02;4.13;;;;;;;;;;5078083;28;20081;-74
2022/09/23 04:26:37;;;;;;;5.50;3.22;;;;;;;;;;5077019;28;20541;-75
2022/09/23 04:29:03;;;;;;;6.22;3.85;;;;;;;;;;5084125;28;20047;-74
2022/09/23 04:31:30;;;;;;;4.28;3.33;;;;;;;;;;5084597;28;20036;-74
2022/09/23 04:33:57;;;;;;;5.20;3.60;;;;;;;;;;5072948;28;20105;-75
2022/09/23 04:36:23;;;;;;;6.43;3.40;;;;;;;;;;5069745;28;20027;-75
2022/09/23 04:38:50;;;;;;;8.70;3.92;;;;;;;;;;5071364;28;20059;-75
2022/09/23 04:41:16;;;;;;;6.25;3.60;;;;;;;;;;5068949;28;20047;-74
2022/09/23 04:43:45;;;;;;;8.85;4.10;;;;;;;;;;5071366;28;20036;-75
2022/09/23 04:46:12;;;;;;;7.10;3.92;;;;;;;;;;5082872;28;20515;-74
2022/09/23 04:48:40;;;;;;;6.00;3.25;;;;;;;;;;5109424;27;20020;-74
2022/09/23 04:51:16;;;;;;;5.70;3.47;;;;;;;;;;5093553;28;20027;-74
2022/09/23 04:53:43;;;;;;;13.82;4.05;;;;;;;;;;5089550;28;20058;-74
2022/09/23 04:56:11;;;;;;;5.78;3.20;;;;;;;;;;5083824;28;20097;-73
2022/09/23 04:58:38;;;;;;;6.20;3.65;;;;;;;;;;5065136;28;20025;-74
2022/09/23 05:01:09;;;;;;;5.07;3.42;;;;;;;;;;5085126;28;20362;-73
2022/09/23 05:03:35;;;;;;;8.35;3.58;;;;;;;;;;5090709;28;20062;-77
2022/09/23 05:06:01;;;;;;;7.20;4.18;;;;;;;;;;5092568;28;20073;-74
2022/09/23 05:08:28;;;;;;;5.70;3.40;;;;;;;;;;5069342;28;20353;-74
2022/09/23 05:10:58;;;;;;;7.45;3.63;;;;;;;;;;5090950;28;20028;-74
2022/09/23 05:13:24;;;;;;;9.85;4.30;;;;;;;;;;5071644;28;20568;-74
2022/09/23 05:15:56;;;;;;;7.93;3.80;;;;;;;;;;5062947;28;20088;-74
2022/09/23 05:18:22;;;;;;;8.35;3.95;;;;;;;;;;5069364;28;20024;-74
2022/09/23 05:20:55;;;;;;;8.57;4.57;;;;;;;;;;5105032;27;20472;-74
2022/09/23 05:23:22;;;;;;;9.10;4.90;;;;;;;;;;5063520;28;20044;-74
2022/09/23 05:25:49;;;;;;;10.90;4.65;;;;;;;;;;5067446;28;20097;-74
2022/09/23 05:28:17;;;;;;;8.80;4.30;;;;;;;;;;5069804;28;20033;-73
2022/09/23 05:30:43;;;;;;;8.02;4.45;;;;;;;;;;5071747;28;20031;-74
2022/09/23 05:33:09;;;;;;;5.85;3.78;;;;;;;;;;5066426;28;20016;-74
2022/09/23 05:35:36;;;;;;;6.65;3.97;;;;;;;;;;5069075;28;21019;-75
2022/09/23 05:38:02;;;;;;;8.20;3.83;;;;;;;;;;5070234;28;20052;-74
2022/09/23 05:40:28;;;;;;;6.32;3.75;;;;;;;;;;5069010;28;21112;-74
2022/09/23 05:42:55;;;;;;;7.65;4.05;;;;;;;;;;5060766;28;20028;-74
2022/09/23 05:45:21;;;;;;;12.05;4.50;;;;;;;;;;5063429;28;20056;-74
2022/09/23 05:47:47;;;;;;;10.10;4.30;;;;;;;;;;5061336;28;20044;-74
2022/09/23 05:50:13;;;;;;;7.60;3.88;;;;;;;;;;5067831;28;20036;-74
2022/09/23 05:52:40;;;;;;;12.23;4.20;;;;;;;;;;5069415;28;20060;-76
2022/09/23 05:55:06;;;;;;;10.50;4.50;;;;;;;;;;5060230;28;20033;-75
2022/09/23 05:57:32;;;;;;;30.80;5.80;;;;;;;;;;5065716;28;20032;-76
2022/09/23 05:59:58;;;;;;;36.70;5.72;;;;;;;;;;5066112;28;20016;-75
2022/09/23 06:02:25;;;;;;;51.95;5.72;;;;;;;;;;5066805;28;20028;-76
2022/09/23 06:04:51;;;;;;;37.08;7.85;;;;;;;;;;5065650;28;20032;-74
2022/09/23 06:07:17;;;;;;;25.60;4.85;;;;;;;;;;5062738;28;20039;-74
2022/09/23 06:09:44;;;;;;;42.05;6.50;;;;;;;;;;5057254;28;20032;-74
2022/09/23 06:12:12;;;;;;;14.02;4.20;;;;;;;;;;5066691;28;20047;-75
2022/09/23 06:14:39;;;;;;;19.17;5.93;;;;;;;;;;5064832;28;20107;-75
2022/09/23 06:17:05;;;;;;;48.28;5.38;;;;;;;;;;5081252;28;20025;-74
2022/09/23 06:19:31;;;;;;;15.10;4.10;;;;;;;;;;5069195;28;20123;-75
2022/09/23 06:21:57;;;;;;;45.22;5.68;;;;;;;;;;5072510;28;20098;-74
2022/09/23 06:24:23;;;;;;;8.75;4.38;;;;;;;;;;5079467;28;20504;-75
2022/09/23 06:26:49;;;;;;;13.00;4.38;;;;;;;;;;5063969;28;20082;-75
2022/09/23 06:29:17;;;;;;;12.05;5.85;;;;;;;;;;5076974;28;20163;-75
2022/09/23 06:31:43;;;;;;;11.95;4.72;;;;;;;;;;5086459;28;20024;-74
2022/09/23 06:34:10;;;;;;;10.57;4.38;;;;;;;;;;5083871;28;20044;-75
2022/09/23 06:36:36;;;;;;;44.38;6.35;;;;;;;;;;5069600;28;20158;-75
2022/09/23 06:39:02;;;;;;;15.98;4.97;;;;;;;;;;5080887;28;20519;-74
2022/09/23 06:41:29;;;;;;;19.52;5.53;;;;;;;;;;5089514;28;20024;-75
2022/09/23 06:43:55;;;;;;;11.20;4.53;;;;;;;;;;5070522;28;20020;-75
2022/09/23 06:46:21;;;;;;;10.65;4.78;;;;;;;;;;5090202;28;20388;-75
2022/09/23 06:48:48;;;;;;;24.35;5.05;;;;;;;;;;5106723;27;20036;-75
2022/09/23 06:51:18;;;;;;;25.75;5.30;;;;;;;;;;5088229;28;20063;-75
2022/09/23 06:53:54;;;;;;;70.35;7.07;;;;;;;;;;5060065;28;20020;-75
2022/09/23 06:56:20;;;;;;;52.92;6.78;;;;;;;;;;5091980;28;20016;-74
2022/09/23 06:58:47;;;;;;;34.67;5.93;;;;;;;;;;5068184;28;20035;-74
2022/09/23 07:01:16;;;;;;;40.65;6.90;;;;;;;;;;5106170;28;20024;-75
2022/09/23 07:03:43;;;;;;;30.30;6.13;;;;;;;;;;5066982;28;20130;-75
2022/09/23 07:06:10;;;;;;;41.53;5.97;;;;;;;;;;5084556;28;20037;-75
2022/09/23 07:08:36;;;;;;;24.35;5.18;;;;;;;;;;5046109;28;20043;-73
2022/09/23 07:11:04;;;;;;;37.00;5.13;;;;;;;;;;5097144;28;20038;-73
2022/09/23 07:13:33;;;;;;;32.60;4.97;;;;;;;;;;5061443;28;20094;-73
2022/09/23 07:16:00;;;;;;;26.27;4.93;;;;;;;;;;5063272;28;20104;-73
2022/09/23 07:18:27;;;;;;;23.90;5.40;;;;;;;;;;5086536;28;20122;-75
2022/09/23 07:20:57;;;;;;;97.82;8.68;;;;;;;;;;5091845;28;20103;-74
2022/09/23 07:23:24;;;;;;;54.08;6.72;;;;;;;;;;5066169;28;20048;-74
2022/09/23 07:25:51;;;;;;;24.20;5.10;;;;;;;;;;5075344;28;21070;-74
2022/09/23 07:28:18;;;;;;;26.38;5.57;;;;;;;;;;5079673;28;20095;-75
2022/09/23 07:30:45;;;;;;;35.90;5.53;;;;;;;;;;5063006;28;20501;-75
2022/09/23 07:33:12;;;;;;;55.05;6.13;;;;;;;;;;5081748;28;20049;-75
2022/09/23 07:35:41;;;;;;;18.75;4.78;;;;;;;;;;5090590;28;20028;-74
2022/09/23 07:38:08;;;;;;;20.25;6.13;;;;;;;;;;5085135;28;20066;-75
2022/09/23 07:40:34;;;;;;;29.75;5.18;;;;;;;;;;5080813;28;20449;-75
2022/09/23 07:43:03;;;;;;;47.00;5.57;;;;;;;;;;5092810;28;20563;-74
2022/09/23 07:45:30;;;;;;;19.33;4.63;;;;;;;;;;5083762;28;20055;-74
2022/09/23 07:47:57;;;;;;;22.30;4.40;;;;;;;;;;5085362;28;20032;-75
2022/09/23 07:50:23;;;;;;;16.52;4.50;;;;;;;;;;5075708;28;20225;-74
2022/09/23 07:52:51;;;;;;;16.35;4.60;;;;;;;;;;5074327;28;20123;-74
2022/09/23 07:55:18;;;;;;;16.13;4.68;;;;;;;;;;5079535;28;20518;-77
2022/09/23 07:57:44;;;;;;;19.88;5.20;;;;;;;;;;5104429;28;20019;-75
2022/09/23 08:00:12;;;;;;;17.48;4.38;;;;;;;;;;5079584;28;20120;-74
2022/09/23 08:02:38;;;;;;;18.13;4.63;;;;;;;;;;5085185;28;20039;-74
2022/09/23 08:05:05;;;;;;;56.22;7.63;;;;;;;;;;5092464;28;20028;-75
2022/09/23 08:07:33;;;;;;;19.27;5.28;;;;;;;;;;5069904;28;20038;-75
2022/09/23 08:09:59;;;;;;;28.25;5.25;;;;;;;;;;5072662;28;20054;-75
2022/09/23 08:12:25;;;;;;;13.02;4.97;;;;;;;;;;5071847;28;20444;-75
2022/09/23 08:14:51;;;;;;;11.35;4.65;;;;;;;;;;5085553;28;20407;-74
2022/09/23 08:17:18;;;;;;;41.75;5.78;;;;;;;;;;5090200;28;20028;-75
2022/09/23 08:19:44;;;;;;;23.75;4.35;;;;;;;;;;5091599;28;20479;-74
2022/09/23 08:22:11;;;;;;;13.40;3.58;;;;;;;;;;5087080;28;20028;-81
2022/09/23 08:24:37;;;;;;;9.93;3.47;;;;;;;;;;5081151;28;20500;-74
2022/09/23 08:27:03;;;;;;;12.57;3.72;;;;;;;;;;5075003;28;20107;-75
2022/09/23 08:29:29;;;;;;;4.90;3.58;;;;;;;;;;5070139;28;20110;-74
2022/09/23 08:31:55;;;;;;;8.57;4.13;;;;;;;;;;5088902;28;20115;-75
2022/09/23 08:34:22;;;;;;;9.65;4.07;;;;;;;;;;5079066;28;20056;-75
2022/09/23 08:36:51;;;;;;;7.93;3.97;;;;;;;;;;5061925;28;20802;-75
2022/09/23 08:39:18;;;;;;;12.48;3.88;;;;;;;;;;5084034;28;20005;-75
2022/09/23 08:41:53;;;;;;;8.55;4.45;;;;;;;;;;5080212;28;20016;-75
2022/09/23 08:44:23;;;;;;;9.65;4.25;;;;;;;;;;5079943;28;20076;-75
2022/09/23 08:47:13;;;;;;;10.63;4.57;;;;;;;;;;5074308;28;20035;-74
2022/09/23 08:50:00;;;;;;;14.15;4.78;;;;;;;;;;5079417;28;20039;-75
2022/09/23 08:52:49;;;;;;;10.38;5.05;;;;;;;;;;5067452;28;20036;-75
2022/09/23 08:55:16;;;;;;;13.05;4.57;;;;;;;;;;5057833;28;20060;-75
2022/09/23 08:57:58;;;;;;;27.30;6.15;;;;;;;;;;5069003;28;20036;-75
2022/09/23 09:00:34;;;;;;;18.25;4.82;;;;;;;;;;5091961;28;20036;-75
2022/09/23 09:03:00;;;;;;;10.85;4.80;;;;;;;;;;5088089;28;20772;-75
2022/09/23 09:05:28;;;;;;;15.02;5.15;;;;;;;;;;5062619;28;20028;-74
2022/09/23 09:07:57;;;;;;;14.70;5.78;;;;;;;;;;5087440;28;20035;-74
2022/09/23 09:10:25;;;;;;;17.73;6.10;;;;;;;;;;5080227;28;20085;-74
2022/09/23 09:13:08;;;;;;;15.80;6.78;;;;;;;;;;5075643;28;20034;-75
2022/09/23 09:15:49;;;;;;;14.05;7.10;;;;;;;;;;5070704;28;20059;-76
2022/09/23 09:18:19;;;;;;;12.00;7.55;;;;;;;;;;5084976;28;20056;-75
2022/09/23 09:21:08;;;;;;;15.90;7.35;;;;;;;;;;5093178;28;20515;-75
2022/09/23 09:23:54;;;;;;;12.50;7.10;;;;;;;;;;5088421;28;20121;-75
2022/09/23 09:26:26;;;;;;;15.35;7.47;;;;;;;;;;5075654;28;20021;-75
2022/09/23 09:28:57;;;;;;;12.80;6.72;;;;;;;;;;5091523;28;20028;-74
2022/09/23 09:31:29;;;;;;;12.88;6.97;;;;;;;;;;5069849;28;20044;-74
2022/09/23 09:34:06;;;;;;;15.32;8.05;;;;;;;;;;5081503;28;20427;-76
2022/09/23 09:36:56;;;;;;;15.57;7.55;;;;;;;;;;5071724;28;20350;-75
2022/09/23 09:39:22;;;;;;;11.23;7.00;;;;;;;;;;5018921;28;20032;-75
2022/09/23 09:41:50;;;;;;;16.77;8.15;;;;;;;;;;5087395;28;20024;-74
2022/09/23 09:44:35;;;;;;;12.18;7.43;;;;;;;;;;5087114;28;20165;-75
2022/09/23 09:47:28;;;;;;;13.93;8.13;;;;;;;;;;5069171;28;20861;-74
2022/09/23 09:50:08;;;;;;;17.65;8.75;;;;;;;;;;5078591;28;20096;-75
2022/09/23 09:52:35;;;;;;;13.38;7.85;;;;;;;;;;5080974;28;20068;-74
2022/09/23 09:55:17;;;;;;;15.32;7.18;;;;;;;;;;5081201;28;20024;-74
2022/09/23 09:58:04;;;;;;;7.82;5.50;;;;;;;;;;5074666;28;20024;-74
2022/09/23 10:00:30;;;;;;;7.78;5.07;;;;;;;;;;5060119;28;20113;-75
2022/09/23 10:02:59;;;;;;;8.30;4.55;;;;;;;;;;5082775;28;20034;-73
2022/09/23 10:05:33;;;;;;;8.43;4.05;;;;;;;;;;5066896;28;20415;-75
2022/09/23 10:08:18;;;;;;;7.25;4.25;;;;;;;;;;5070326;28;20024;-75
2022/09/23 10:11:01;;;;;;;7.40;3.58;;;;;;;;;;5067999;28;20079;-74
2022/09/23 10:13:28;;;;;;;5.28;3.40;;;;;;;;;;5065849;28;20028;-74
2022/09/23 10:15:55;;;;;;;4.47;3.42;;;;;;;;;;5068318;28;20056;-74
2022/09/23 10:18:36;;;;;;;6.72;3.55;;;;;;;;;;5066572;28;20020;-75
2022/09/23 10:21:07;;;;;;;4.95;3.30;;;;;;;;;;5089155;28;20085;-75
2022/09/23 10:23:33;;;;;;;4.57;3.40;;;;;;;;;;5064886;28;20056;-74
2022/09/23 10:26:05;;;;;;;4.38;3.10;;;;;;;;;;5086545;28;20051;-74
2022/09/23 10:28:44;;;;;;;4.20;2.92;;;;;;;;;;5087153;28;20456;-75
2022/09/23 10:31:15;;;;;;;4.00;2.90;;;;;;;;;;5068561;28;20118;-74
2022/09/23 10:33:48;;;;;;;4.30;2.70;;;;;;;;;;5068919;28;20039;-73
2022/09/23 10:36:18;;;;;;;4.70;3.33;;;;;;;;;;5087390;28;20064;-74
2022/09/23 10:38:44;;;;;;;8.30;3.42;;;;;;;;;;5081988;28;20051;-75
2022/09/23 10:47:13;;;;;;;4.45;2.70;;;;;;;;;;5086013;28;20443;-74
2022/09/23 10:49:42;;;;;;;4.20;2.83;;;;;;;;;;5069194;28;20452;-75
2022/09/23 10:52:26;;;;;;;3.00;2.70;;;;;;;;;;5087482;28;20080;-75
2022/09/23 10:54:55;;;;;;;5.38;2.80;;;;;;;;;;5066847;28;20028;-75
2022/09/23 10:57:42;;;;;;;3.95;3.05;;;;;;;;;;5087451;28;20048;-75
2022/09/23 11:00:13;;;;;;;4.97;2.70;;;;;;;;;;5085893;28;20032;-74
2022/09/23 11:02:39;;;;;;;4.20;2.40;;;;;;;;;;5084061;28;20023;-75
2022/09/23 11:05:14;;;;;;;5.22;2.30;;;;;;;;;;5085952;28;20100;-74
2022/09/23 11:07:59;;;;;;;2.28;2.00;;;;;;;;;;5086000;28;20050;-75
2022/09/23 11:10:25;;;;;;;6.22;2.42;;;;;;;;;;5061374;28;20089;-74
2022/09/23 11:13:06;;;;;;;5.70;2.22;;;;;;;;;;5087468;28;20111;-74
2022/09/23 11:15:32;;;;;;;2.88;1.90;;;;;;;;;;5084042;28;20095;-76
2022/09/23 11:18:02;;;;;;;3.38;1.70;;;;;;;;;;5068306;28;20028;-74
2022/09/23 11:20:54;;;;;;;2.00;1.80;;;;;;;;;;5085233;28;20043;-74
2022/09/23 11:23:39;;;;;;;2.72;1.90;;;;;;;;;;5080514;28;20067;-74
2022/09/23 11:26:26;;;;;;;4.55;1.90;;;;;;;;;;5069901;28;20063;-75
2022/09/23 11:29:10;;;;;;;3.95;2.50;;;;;;;;;;5085704;28;20024;-75
2022/09/23 11:31:40;;;;;;;3.33;1.75;;;;;;;;;;5081914;28;20524;-75
2022/09/23 11:34:24;;;;;;;3.72;2.00;;;;;;;;;;5087434;28;20063;-75
2022/09/23 11:36:56;;;;;;;3.22;2.10;;;;;;;;;;5082156;28;20032;-75
2022/09/23 11:39:30;;;;;;;3.38;1.80;;;;;;;;;;5070853;28;20020;-76
2022/09/23 11:41:58;;;;;;;2.67;1.70;;;;;;;;;;5087217;28;20020;-75
2022/09/23 11:44:35;;;;;;;2.97;2.55;;;;;;;;;;5085227;28;20032;-74
2022/09/23 11:47:25;;;;;;;2.35;2.15;;;;;;;;;;5085588;28;20024;-75
2022/09/23 11:49:51;;;;;;;1.90;1.73;;;;;;;;;;5074812;28;20028;-74
2022/09/23 11:52:33;;;;;;;2.78;1.85;;;;;;;;;;5086953;28;20055;-74
2022/09/23 11:55:03;;;;;;;3.05;1.80;;;;;;;;;;5084813;28;20062;-75
2022/09/23 11:57:42;;;;;;;2.88;1.67;;;;;;;;;;5066210;28;20500;-75
2022/09/23 12:00:28;;;;;;;1.95;1.75;;;;;;;;;;5067918;28;20028;-74
2022/09/23 12:03:03;;;;;;;4.22;2.17;;;;;;;;;;5084594;28;20031;-74
2022/09/23 12:05:50;;;;;;;3.65;2.05;;;;;;;;;;5066962;28;20032;-73
2022/09/23 12:08:19;;;;;;;3.05;1.98;;;;;;;;;;5078438;28;20054;-75
2022/09/23 12:11:02;;;;;;;5.03;2.10;;;;;;;;;;5083420;28;20020;-78
2022/09/23 12:13:37;;;;;;;2.45;1.75;;;;;;;;;;5081289;28;20720;-74
2022/09/23 12:16:15;;;;;;;5.55;1.80;;;;;;;;;;5069224;28;20027;-75
2022/09/23 12:18:47;;;;;;;2.05;1.77;;;;;;;;;;5069227;28;20024;-74
2022/09/23 12:21:25;;;;;;;4.30;2.10;;;;;;;;;;5090242;28;20047;-75
2022/09/23 12:24:04;;;;;;;2.63;1.90;;;;;;;;;;5072092;28;20135;-75
2022/09/23 12:26:31;;;;;;;3.00;1.67;;;;;;;;;;5072279;28;20032;-75
2022/09/23 12:29:02;;;;;;;3.53;1.70;;;;;;;;;;5071187;28;20062;-75
2022/09/23 12:31:29;;;;;;;3.47;1.67;;;;;;;;;;5089241;28;20563;-74
2022/09/23 12:33:57;;;;;;;3.60;1.85;;;;;;;;;;5086421;28;20077;-75
2022/09/23 12:36:34;;;;;;;3.55;1.92;;;;;;;;;;5087943;28;20039;-75
2022/09/23 12:39:05;;;;;;;2.60;2.35;;;;;;;;;;5068613;28;20121;-76
2022/09/23 12:41:39;;;;;;;2.35;1.73;;;;;;;;;;5086281;28;20012;-75
2022/09/23 12:44:14;;;;;;;3.15;2.20;;;;;;;;;;5087258;28;20028;-76
2022/09/23 12:46:44;;;;;;;3.55;1.88;;;;;;;;;;5070998;28;20380;-76
2022/09/23 12:49:27;;;;;;;3.47;1.70;;;;;;;;;;5066530;28;20411;-76
2022/09/23 12:52:14;;;;;;;3.63;1.95;;;;;;;;;;5086646;28;20035;-75
2022/09/23 12:54:40;;;;;;;5.75;2.55;;;;;;;;;;5086140;28;20027;-75
2022/09/23 12:57:13;;;;;;;4.28;1.90;;;;;;;;;;5084651;28;20059;-75
2022/09/23 12:59:52;;;;;;;3.63;1.98;;;;;;;;;;5084903;28;20028;-76
2022/09/23 13:02:27;;;;;;;8.55;1.75;;;;;;;;;;5069525;28;20035;-75
2022/09/23 13:07:46;;;;;;;1.88;1.35;;;;;;;;;;5087891;28;20078;-75
2022/09/23 13:10:28;;;;;;;3.50;1.67;;;;;;;;;;5070012;28;20051;-75
2022/09/23 13:12:55;;;;;;;3.70;1.90;;;;;;;;;;5086147;28;20035;-75
2022/09/23 13:15:34;;;;;;;1.75;1.55;;;;;;;;;;5082068;28;20023;-75
2022/09/23 13:18:21;;;;;;;1.90;1.70;;;;;;;;;;5088329;28;20020;-75
2022/09/23 13:20:51;;;;;;;4.00;1.92;;;;;;;;;;5086500;28;20022;-74
2022/09/23 13:23:20;;;;;;;2.78;1.75;;;;;;;;;;5062894;28;20052;-75
2022/09/23 13:25:49;;;;;;;3.08;1.55;;;;;;;;;;5064465;28;20032;-75
2022/09/23 13:28:24;;;;;;;4.22;1.40;;;;;;;;;;5065169;28;20032;-74
2022/09/23 13:30:51;;;;;;;2.50;1.60;;;;;;;;;;5064293;28;20393;-75
2022/09/23 13:33:23;;;;;;;2.60;1.80;;;;;;;;;;5065710;28;20550;-75
2022/09/23 13:35:50;;;;;;;1.80;1.70;;;;;;;;;;5066580;28;20025;-74
2022/09/23 13:38:24;;;;;;;4.82;1.83;;;;;;;;;;5067289;28;20152;-75
2022/09/23 13:40:55;;;;;;;3.28;2.17;;;;;;;;;;5064133;28;20017;-75
2022/09/23 13:43:23;;;;;;;1.88;1.48;;;;;;;;;;5064196;28;20029;-75
2022/09/23 13:45:49;;;;;;;1.33;1.20;;;;;;;;;;5063575;28;20032;-75
2022/09/23 13:48:16;;;;;;;3.03;1.70;;;;;;;;;;5066296;28;20031;-76
2022/09/23 13:50:50;;;;;;;2.92;1.25;;;;;;;;;;5065117;28;20037;-75
2022/09/23 13:53:20;;;;;;;1.60;1.42;;;;;;;;;;5064353;28;20032;-75
2022/09/23 13:55:46;;;;;;;1.92;1.60;;;;;;;;;;5066716;28;20040;-76
2022/09/23 13:58:16;;;;;;;2.35;1.88;;;;;;;;;;5063975;28;20021;-76
2022/09/23 14:00:42;;;;;;;1.80;1.50;;;;;;;;;;5064975;28;20028;-75
2022/09/23 14:03:18;;;;;;;3.28;1.60;;;;;;;;;;5062100;28;20032;-76
2022/09/23 14:05:44;;;;;;;1.70;1.35;;;;;;;;;;5065874;28;20029;-75
2022/09/23 14:08:11;;;;;;;1.88;1.25;;;;;;;;;;5064772;28;20037;-75
2022/09/23 14:10:41;;;;;;;1.58;1.35;;;;;;;;;;5066647;28;20560;-75
2022/09/23 14:13:13;;;;;;;1.77;1.50;;;;;;;;;;5063168;28;20016;-75
2022/09/23 14:15:39;;;;;;;2.80;1.48;;;;;;;;;;5063735;28;20485;-75
2022/09/23 14:18:06;;;;;;;2.03;1.35;;;;;;;;;;5063510;28;20021;-76
2022/09/23 14:20:33;;;;;;;3.00;1.63;;;;;;;;;;5065233;28;20093;-75
2022/09/23 14:23:25;;;;;;;1.73;1.40;;;;;;;;;;5065798;28;20082;-75
2022/09/23 14:25:51;;;;;;;2.10;1.40;;;;;;;;;;5084581;28;20095;-75
2022/09/23 14:28:19;;;;;;;4.70;2.65;;;;;;;;;;5067885;28;20039;-75
2022/09/23 14:30:46;;;;;;;2.33;1.60;;;;;;;;;;5086011;28;20031;-75
2022/09/23 14:33:22;;;;;;;1.63;1.50;;;;;;;;;;5085929;28;20057;-76
2022/09/23 14:35:51;;;;;;;1.40;1.30;;;;;;;;;;5084261;28;20032;-75
2022/09/23 14:41:15;;;;;;;1.98;1.33;;;;;;;;;;5085762;28;20105;-75
2022/09/23 14:43:56;;;;;;;2.30;1.50;;;;;;;;;;5070449;28;20094;-75
2022/09/23 14:46:23;;;;;;;1.70;1.30;;;;;;;;;;5084920;28;20031;-74
2022/09/23 14:49:08;;;;;;;1.50;1.40;;;;;;;;;;5068491;28;20073;-75
2022/09/23 14:51:46;;;;;;;3.08;1.77;;;;;;;;;;5065238;28;20039;-74
2022/09/23 14:54:23;;;;;;;5.35;2.30;;;;;;;;;;5087152;28;20032;-74
2022/09/23 14:56:50;;;;;;;3.05;1.73;;;;;;;;;;5087686;28;20487;-74
2022/09/23 14:59:24;;;;;;;1.40;1.30;;;;;;;;;;5081957;28;20028;-74
2022/09/23 15:01:50;;;;;;;2.43;1.87;;;;;;;;;;5064306;28;20029;-74
2022/09/23 15:04:18;;;;;;;1.48;1.38;;;;;;;;;;5080152;28;20097;-74
2022/09/23 15:06:55;;;;;;;2.03;1.83;;;;;;;;;;5081058;28;20024;-75
2022/09/23 15:09:30;;;;;;;2.28;1.63;;;;;;;;;;5063902;28;20025;-76
2022/09/23 15:11:58;;;;;;;3.03;1.75;;;;;;;;;;5081684;28;20051;-77
2022/09/23 15:14:29;;;;;;;6.45;2.63;;;;;;;;;;5082555;28;20035;-75
2022/09/23 15:16:55;;;;;;;1.70;1.60;;;;;;;;;;5063246;28;20063;-75